Columbia, Maryland
Current Conditions -  °F | °C
As of 7:24 AM on Monday 20 Oct 2014 (Local Time) from KFME Reporting Station
Clear Clear  
Wind Chill: 32°   Ceiling: Unl
Heat Index: 32°   Visibility: 10mi
Dew Point: 32°   Wind: 0mph
Humidity: 100%   Direction: NA
Pressure: 30.14"   Gusts: NA
Location:  39.21°N, 76.87°W
Report Text: KFME 201124Z AUTO 00000KT 10SM CLR 00/00 A3014 RMK AO1
Loading
Personal Weather Stations






























Interactive Weather Map
Tropical Storm Tracking
New forecast layout! Learn more

10-Day Weather Forecast

Advertisements
Track Severe Weather on mobile